Weather at Greater Cumberland Regional Airport

Public forecast

Using degrees Fahrenheit for public forecast. Weather courtesy of forecast.io.

Current aviation weather report (METAR) for Greater Cumberland Regional Airport

Retrieved 2021/05/12 18:15 UTC (0 seconds ago):

KCBE 121815Z AUTO 32006G15KT 10SM BKN070 16/00 A3029 RMK AO2 T01590000

Closest aviation forecast (TAF) to Greater Cumberland Regional Airport

Closest forecast is Eastern WV Regional Airport/Shepherd Field, 38.2 nm (70.7 km) ESE. Retrieved 2021/05/12 18:48 UTC (0 seconds ago):

TAF KMRB 121747Z 1218/1318 VRB06KT P6SM SKC FM122000 35008KT P6SM FEW060 SCT090 FM130100 33004KT P6SM FEW060 FEW250 FM130300 33004KT P6SM FEW090 FEW250